Time;durP1;ratioP1;P1;durP2;ratioP2;P2;SDS_P1;SDS_P2;PMS_P1;PMS_P2;Temp;Humidity;BMP_temperature;BMP_pressure;BME280_temperature;BME280_humidity;BME280_pressure;Samples;Min_cycle;Max_cycle;Signal;HPM_P1;HPM_P2
2021/12/05 00:23:16;;;;;;;14.30;5.25;;;1.20;99.90;;;;;;4978124;28;20033;-82
2021/12/05 00:25:46;;;;;;;19.23;7.07;;;1.30;99.90;;;;;;4962288;28;20426;-83
2021/12/05 00:31:16;;;;;;;18.08;5.30;;;1.40;99.90;;;;;;4978016;28;20129;-82
2021/12/05 00:34:15;;;;;;;24.42;6.15;;;1.40;99.90;;;;;;4961480;28;20030;-82
2021/12/05 00:39:41;;;;;;;22.88;5.88;;;1.30;99.90;;;;;;4977170;28;20045;-82
2021/12/05 00:47:47;;;;;;;20.65;9.80;;;1.50;99.90;;;;;;4967812;28;20057;-83
2021/12/05 00:58:55;;;;;;;13.23;4.75;;;1.40;99.90;;;;;;4977566;28;20058;-84
2021/12/05 01:04:02;;;;;;;18.75;5.25;;;1.40;99.90;;;;;;4976775;28;20042;-84
2021/12/05 01:14:30;;;;;;;20.85;6.75;;;1.60;99.90;;;;;;4977140;28;20038;-84
2021/12/05 01:16:57;;;;;;;18.98;7.13;;;1.60;99.90;;;;;;4961135;28;20022;-83
2021/12/05 01:19:25;;;;;;;27.20;8.10;;;1.70;99.90;;;;;;4961160;28;20026;-84
2021/12/05 01:21:55;;;;;;;35.13;7.95;;;1.70;99.90;;;;;;4960872;28;20034;-83
2021/12/05 01:24:54;;;;;;;19.58;6.82;;;1.70;99.90;;;;;;4961062;28;20390;-83
2021/12/05 01:27:37;;;;;;;17.17;6.28;;;1.60;99.90;;;;;;4961337;28;20521;-83
2021/12/05 01:30:16;;;;;;;13.57;4.38;;;1.50;99.90;;;;;;4977087;28;20130;-83
2021/12/05 01:57:27;;;;;;;7.38;1.73;;;0.40;99.90;;;;;;4976288;28;20482;-85
2021/12/05 02:11:23;;;;;;;11.65;5.45;;;0.30;99.90;;;;;;4976126;28;20030;-83
2021/12/05 02:40:26;;;;;;;27.65;10.60;;;0.80;99.90;;;;;;4980224;28;20141;-82
2021/12/05 02:43:07;;;;;;;36.45;9.82;;;0.80;99.90;;;;;;4980199;28;20113;-82
2021/12/05 02:45:34;;;;;;;26.10;9.95;;;0.80;99.90;;;;;;4979872;28;20032;-82
2021/12/05 02:48:00;;;;;;;34.75;10.52;;;0.90;99.90;;;;;;4979995;28;20031;-82
2021/12/05 02:50:29;;;;;;;40.78;11.55;;;0.80;99.90;;;;;;4963864;28;20049;-81
2021/12/05 02:53:02;;;;;;;41.78;11.82;;;0.90;99.90;;;;;;4963635;28;20030;-81
2021/12/05 02:55:37;;;;;;;28.10;11.00;;;0.90;99.90;;;;;;4963468;28;20033;-81
2021/12/05 02:58:14;;;;;;;31.33;12.90;;;1.00;99.90;;;;;;4963748;28;20055;-81
2021/12/05 03:00:53;;;;;;;33.45;12.32;;;1.00;99.90;;;;;;4963647;28;20121;-81
2021/12/05 03:03:22;;;;;;;39.15;13.35;;;1.00;99.90;;;;;;4979560;28;20120;-82
2021/12/05 03:05:54;;;;;;;43.90;12.80;;;1.00;99.90;;;;;;4963411;28;20375;-82
2021/12/05 03:08:20;;;;;;;34.05;13.80;;;1.00;99.90;;;;;;4962960;28;20038;-82
2021/12/05 03:10:49;;;;;;;44.03;12.70;;;1.00;99.90;;;;;;4963393;28;20264;-82
2021/12/05 03:13:15;;;;;;;36.85;12.82;;;1.00;99.90;;;;;;4963260;28;20026;-81
2021/12/05 03:15:41;;;;;;;35.47;12.85;;;1.00;99.90;;;;;;4963390;28;20494;-82
2021/12/05 03:18:07;;;;;;;39.80;14.75;;;1.00;99.90;;;;;;4962923;28;20026;-81
2021/12/05 03:20:33;;;;;;;39.03;12.45;;;1.00;99.90;;;;;;4979335;28;20026;-82
2021/12/05 03:22:59;;;;;;;45.47;13.43;;;0.90;99.90;;;;;;4963173;28;20505;-81
2021/12/05 03:25:26;;;;;;;33.97;12.60;;;1.00;99.90;;;;;;4979346;28;20441;-81
2021/12/05 03:27:53;;;;;;;42.47;13.05;;;0.90;99.90;;;;;;4963235;28;20031;-82
2021/12/05 03:30:23;;;;;;;38.78;11.88;;;0.90;99.90;;;;;;4979259;28;20031;-81
2021/12/05 03:32:50;;;;;;;42.00;12.60;;;0.90;99.90;;;;;;4963211;28;20023;-81
2021/12/05 03:35:21;;;;;;;33.97;12.52;;;1.00;99.90;;;;;;4979013;28;20030;-81
2021/12/05 03:37:48;;;;;;;36.85;11.98;;;1.00;99.90;;;;;;4963405;28;20548;-81
2021/12/05 03:40:17;;;;;;;36.22;12.85;;;1.00;99.90;;;;;;4979077;28;20046;-82
2021/12/05 03:42:45;;;;;;;35.92;13.13;;;1.00;99.90;;;;;;4978919;28;20085;-81
2021/12/05 03:45:28;;;;;;;42.72;12.85;;;0.90;99.90;;;;;;4978438;28;20142;-81
2021/12/05 03:47:56;;;;;;;40.97;14.40;;;0.90;99.90;;;;;;4962772;28;20030;-81
2021/12/05 03:50:23;;;;;;;37.25;13.25;;;1.00;99.90;;;;;;4962743;28;20034;-82
2021/12/05 03:52:49;;;;;;;46.45;14.45;;;1.00;99.90;;;;;;4962740;28;20034;-82
2021/12/05 03:55:16;;;;;;;36.50;13.40;;;1.00;99.90;;;;;;4978602;28;20441;-82
2021/12/05 03:57:42;;;;;;;50.75;14.90;;;1.00;99.90;;;;;;4978909;28;20045;-82
2021/12/05 04:00:22;;;;;;;42.55;14.30;;;0.90;99.90;;;;;;4962632;28;20121;-82
2021/12/05 04:02:54;;;;;;;45.08;14.65;;;0.90;99.90;;;;;;4978494;28;20134;-82
2021/12/05 04:05:25;;;;;;;42.38;14.38;;;0.90;99.90;;;;;;4978234;28;20036;-82
2021/12/05 04:07:53;;;;;;;43.13;13.77;;;0.90;99.90;;;;;;4977681;28;20117;-81
2021/12/05 04:10:20;;;;;;;49.03;13.85;;;0.90;99.90;;;;;;4961800;28;20038;-82
2021/12/05 04:12:47;;;;;;;43.63;14.60;;;0.90;99.90;;;;;;4961957;28;20034;-81
2021/12/05 04:15:14;;;;;;;50.58;13.35;;;0.90;99.90;;;;;;4961934;28;20026;-82
2021/12/05 04:17:41;;;;;;;36.97;13.60;;;0.90;99.90;;;;;;4962096;28;20030;-81
2021/12/05 04:20:09;;;;;;;38.70;13.07;;;0.90;99.90;;;;;;4962298;28;20371;-82
2021/12/05 04:22:36;;;;;;;44.40;13.52;;;0.90;99.90;;;;;;4978325;28;20393;-82
2021/12/05 04:25:05;;;;;;;35.58;12.88;;;0.90;99.90;;;;;;4961760;28;20026;-82
2021/12/05 04:27:31;;;;;;;48.05;13.32;;;0.90;99.90;;;;;;4962205;28;20041;-81
2021/12/05 04:29:56;;;;;;;37.45;12.52;;;0.90;99.90;;;;;;4962111;28;20034;-82
2021/12/05 04:32:24;;;;;;;30.33;11.82;;;1.00;99.90;;;;;;4962157;28;20116;-82
2021/12/05 04:34:50;;;;;;;35.70;12.50;;;1.00;99.90;;;;;;4977489;28;20486;-83
2021/12/05 04:37:17;;;;;;;51.67;11.65;;;1.00;99.90;;;;;;4961999;28;20037;-82
2021/12/05 04:39:43;;;;;;;33.22;10.85;;;1.00;99.90;;;;;;4961819;28;20026;-82
2021/12/05 04:42:09;;;;;;;28.90;10.38;;;1.00;99.90;;;;;;4961988;28;20112;-83
2021/12/05 04:44:35;;;;;;;22.02;9.07;;;1.00;99.90;;;;;;4977782;28;20126;-82
2021/12/05 04:47:01;;;;;;;26.85;9.63;;;1.00;99.90;;;;;;4961592;28;20120;-83
2021/12/05 04:49:29;;;;;;;29.13;9.88;;;1.00;99.90;;;;;;4961946;28;20026;-83
2021/12/05 04:51:55;;;;;;;22.65;8.93;;;1.00;99.90;;;;;;4961640;28;20121;-82
2021/12/05 04:54:21;;;;;;;28.27;9.00;;;1.00;99.90;;;;;;4961293;28;20479;-83
2021/12/05 04:56:48;;;;;;;30.58;10.10;;;1.00;99.90;;;;;;4960955;28;20061;-82
2021/12/05 04:59:23;;;;;;;32.55;9.85;;;1.00;99.90;;;;;;4994959;28;20661;-82
2021/12/05 05:01:51;;;;;;;33.80;10.20;;;1.00;99.90;;;;;;4977397;28;20191;-82
2021/12/05 05:04:26;;;;;;;32.63;10.73;;;1.00;99.90;;;;;;4976997;28;20042;-83
2021/12/05 05:06:55;;;;;;;25.42;9.82;;;1.00;99.90;;;;;;4994990;28;20793;-83
2021/12/05 05:09:21;;;;;;;37.03;11.13;;;1.00;99.90;;;;;;4976943;28;20039;-83
2021/12/05 05:11:47;;;;;;;43.53;11.73;;;1.00;99.90;;;;;;4961025;28;20041;-83
2021/12/05 05:14:14;;;;;;;37.40;11.35;;;1.00;99.90;;;;;;4994383;28;20033;-83
2021/12/05 05:16:40;;;;;;;44.08;13.30;;;1.10;99.90;;;;;;4976838;28;20026;-83
2021/12/05 05:19:07;;;;;;;47.72;15.30;;;1.10;99.90;;;;;;4976801;28;20033;-83
2021/12/05 05:21:45;;;;;;;39.80;13.40;;;1.10;99.90;;;;;;4977154;28;20045;-83
2021/12/05 05:43:25;;;;;;;42.67;14.82;;;1.10;99.90;;;;;;4944291;28;20124;-82
2021/12/05 05:50:59;;;;;;;24.05;10.48;;;1.00;99.90;;;;;;4976437;28;20030;-83
2021/12/05 05:53:25;;;;;;;31.30;11.48;;;0.90;99.90;;;;;;4976207;28;20100;-83
2021/12/05 05:55:53;;;;;;;26.88;11.68;;;0.90;99.90;;;;;;4960702;28;20062;-82
2021/12/05 05:58:22;;;;;;;111.55;16.88;;;0.90;99.90;;;;;;4976722;28;20481;-82
2021/12/05 06:01:03;;;;;;;27.00;12.50;;;0.90;99.90;;;;;;4994001;28;20065;-83
2021/12/05 06:03:30;;;;;;;36.03;12.68;;;0.80;99.90;;;;;;4960483;28;20038;-82
2021/12/05 06:06:15;;;;;;;35.20;11.55;;;0.80;99.90;;;;;;4960159;28;20081;-83
2021/12/05 06:08:43;;;;;;;16.05;8.88;;;0.80;99.90;;;;;;4976100;28;20041;-83
2021/12/05 06:11:15;;;;;;;21.27;8.85;;;0.70;99.90;;;;;;4976358;28;20038;-82
2021/12/05 06:13:41;;;;;;;17.63;8.23;;;0.60;99.90;;;;;;4960111;28;20032;-83
2021/12/05 06:16:09;;;;;;;13.27;7.20;;;0.50;99.90;;;;;;4960169;28;20026;-83
2021/12/05 06:18:35;;;;;;;15.38;7.32;;;0.40;99.90;;;;;;4976174;28;20371;-83
2021/12/05 06:21:02;;;;;;;12.45;5.90;;;0.40;99.90;;;;;;4976355;28;20394;-83
2021/12/05 06:23:28;;;;;;;13.45;5.38;;;0.40;99.90;;;;;;4992516;28;20446;-83
2021/12/05 06:25:54;;;;;;;16.85;4.65;;;0.40;99.90;;;;;;4960184;28;20125;-83
2021/12/05 06:28:32;;;;;;;9.93;5.22;;;0.40;99.90;;;;;;4993760;28;20037;-82
2021/12/05 06:39:26;;;;;;;1378.65;469.10;;;0.30;99.90;;;;;;4968943;28;20133;-83
2021/12/05 06:47:08;;;;;;;16.65;8.02;;;0.40;99.90;;;;;;4993699;28;20034;-83
2021/12/05 06:49:34;;;;;;;16.65;7.18;;;0.40;99.90;;;;;;4960055;28;20041;-83
2021/12/05 06:52:00;;;;;;;18.85;8.75;;;0.40;99.90;;;;;;4959894;28;20027;-83
2021/12/05 06:54:26;;;;;;;31.77;10.50;;;0.40;99.90;;;;;;4976191;28;20474;-83
2021/12/05 06:56:51;;;;;;;25.85;11.20;;;0.50;99.90;;;;;;4959387;28;20075;-83
2021/12/05 06:59:18;;;;;;;21.88;10.68;;;0.50;99.90;;;;;;4976071;28;20034;-82
2021/12/05 07:01:43;;;;;;;33.50;12.57;;;0.50;99.90;;;;;;4977586;28;20034;-82
2021/12/05 07:07:02;;;;;;;34.15;13.57;;;0.60;99.90;;;;;;4953058;28;20073;-83
2021/12/05 07:09:28;;;;;;;40.20;14.40;;;0.60;99.90;;;;;;4992900;28;20081;-83
2021/12/05 07:17:08;;;;;;;44.60;16.20;;;0.60;99.90;;;;;;4992681;28;20034;-82
2021/12/05 07:19:55;;;;;;;50.05;15.45;;;0.60;99.90;;;;;;4978012;28;20389;-82
2021/12/05 07:25:28;;;;;;;52.42;19.13;;;0.70;99.90;;;;;;4974360;28;20085;-82
2021/12/05 07:41:55;;;;;;;35.53;11.40;;;0.80;99.90;;;;;;4978261;28;20568;-82
2021/12/05 07:44:21;;;;;;;28.48;10.25;;;0.80;99.90;;;;;;4962058;28;20022;-82
2021/12/05 07:46:47;;;;;;;35.65;12.40;;;0.90;99.90;;;;;;4962277;28;20041;-82
2021/12/05 07:49:15;;;;;;;37.63;9.88;;;0.90;99.90;;;;;;4961909;28;20022;-82
2021/12/05 07:51:46;;;;;;;30.13;9.77;;;0.90;99.90;;;;;;4978361;28;20035;-82
2021/12/05 07:54:37;;;;;;;34.58;9.68;;;0.90;99.90;;;;;;4962019;28;20490;-82
2021/12/05 08:00:26;;;;;;;27.02;8.68;;;1.00;99.90;;;;;;4978223;28;20038;-82
2021/12/05 08:16:11;;;;;;;17.40;7.97;;;1.20;99.90;;;;;;4995587;28;20027;-82
2021/12/05 08:18:37;;;;;;;26.98;8.05;;;1.20;99.90;;;;;;4995586;28;20093;-82
2021/12/05 08:21:05;;;;;;;28.48;9.13;;;1.20;99.90;;;;;;4962229;28;20069;-82
2021/12/05 08:23:31;;;;;;;38.88;9.52;;;1.10;99.90;;;;;;4961962;28;20030;-82
2021/12/05 08:31:25;;;;;;;22.73;9.48;;;1.50;99.90;;;;;;4977022;28;20045;-83
2021/12/05 08:36:41;;;;;;;24.23;9.02;;;1.90;99.90;;;;;;4978334;28;20079;-84
2021/12/05 08:40:18;;;;;;;22.17;7.30;;;2.00;99.90;;;;;;4978130;28;20085;-84
2021/12/05 09:27:54;;;;;;;17.48;5.00;;;2.10;99.90;;;;;;4977762;28;20023;-85
2021/12/05 10:38:08;;;;;;;11.68;5.30;;;2.20;99.90;;;;;;4994813;28;20026;-86
2021/12/05 10:40:55;;;;;;;9.55;3.80;;;2.10;99.90;;;;;;4977356;28;20097;-86
2021/12/05 10:43:24;;;;;;;13.70;4.55;;;2.00;99.90;;;;;;4961224;28;20121;-86
2021/12/05 10:45:53;;;;;;;12.90;5.82;;;2.10;99.90;;;;;;4961565;28;20478;-86
2021/12/05 10:48:26;;;;;;;8.98;5.93;;;2.30;99.90;;;;;;4977372;28;20030;-86
2021/12/05 10:51:05;;;;;;;19.85;9.43;;;2.30;99.90;;;;;;4977364;28;20034;-86
2021/12/05 10:53:36;;;;;;;28.17;9.65;;;2.30;99.90;;;;;;4978478;28;20129;-85
2021/12/05 10:56:04;;;;;;;42.65;18.92;;;2.30;99.90;;;;;;4981288;28;20034;-86
2021/12/05 10:58:43;;;;;;;28.55;14.68;;;2.30;99.90;;;;;;4981434;28;20089;-86
2021/12/05 11:01:17;;;;;;;13.98;7.13;;;2.50;99.90;;;;;;4998893;28;20023;-86
2021/12/05 11:03:44;;;;;;;14.45;4.30;;;2.50;99.90;;;;;;4981406;28;20026;-86
2021/12/05 11:06:32;;;;;;;13.60;4.07;;;2.60;99.90;;;;;;4981167;28;20039;-86
2021/12/05 11:09:08;;;;;;;10.60;3.80;;;2.70;99.90;;;;;;4964829;28;20049;-85
2021/12/05 11:11:35;;;;;;;9.00;4.70;;;2.60;99.90;;;;;;4965025;28;20046;-85
2021/12/05 11:14:03;;;;;;;6.47;3.38;;;2.60;99.90;;;;;;4964846;28;20386;-86
2021/12/05 11:16:45;;;;;;;10.65;3.40;;;2.70;99.90;;;;;;4964618;28;20022;-86
2021/12/05 11:19:26;;;;;;;23.50;5.88;;;2.80;99.90;;;;;;4981001;28;20045;-86
2021/12/05 11:22:06;;;;;;;15.25;5.45;;;2.70;99.90;;;;;;4981076;28;20129;-86
2021/12/05 11:24:33;;;;;;;14.45;6.55;;;2.70;99.90;;;;;;4980402;28;20043;-85
2021/12/05 11:27:13;;;;;;;23.48;12.02;;;2.70;99.90;;;;;;4981533;28;20030;-86
2021/12/05 11:29:46;;;;;;;12.20;6.32;;;2.70;99.90;;;;;;4998028;28;20030;-86
2021/12/05 11:32:19;;;;;;;15.68;5.95;;;2.70;99.90;;;;;;4964421;28;20452;-86
2021/12/05 11:34:46;;;;;;;18.30;6.32;;;3.00;99.90;;;;;;4964164;28;20053;-86
2021/12/05 11:37:12;;;;;;;12.05;5.65;;;3.10;99.90;;;;;;4980103;28;20031;-87
2021/12/05 11:39:38;;;;;;;22.17;7.78;;;3.20;99.90;;;;;;4979928;28;20092;-86
2021/12/05 11:42:20;;;;;;;19.23;9.30;;;3.10;99.90;;;;;;4964036;28;20034;-86
2021/12/05 11:44:48;;;;;;;;;;;2.90;99.90;;;;;;4981119;28;20452;-87
2021/12/05 11:47:18;;;;;;;16.98;9.20;;;2.70;99.90;;;;;;4980298;28;19910;-86
2021/12/05 11:49:44;;;;;;;21.80;7.97;;;2.60;99.90;;;;;;4980255;28;20030;-86
2021/12/05 11:52:11;;;;;;;13.68;4.85;;;2.30;99.90;;;;;;4963573;28;20073;-85
2021/12/05 11:54:41;;;;;;;16.23;6.82;;;2.30;99.90;;;;;;4979716;28;20486;-86
2021/12/05 11:57:18;;;;;;;18.30;7.55;;;2.20;99.90;;;;;;4963617;28;20041;-86
2021/12/05 11:59:50;;;;;;;16.27;9.35;;;2.10;99.90;;;;;;4963788;28;20034;-86
2021/12/05 12:02:17;;;;;;;12.40;4.25;;;1.90;99.90;;;;;;4963853;28;20375;-86
2021/12/05 12:04:55;;;;;;;12.50;4.43;;;1.70;99.90;;;;;;4979638;28;20035;-86
2021/12/05 12:07:38;;;;;;;10.30;4.90;;;1.60;99.90;;;;;;4997377;28;20030;-85
2021/12/05 12:10:09;;;;;;;9.77;5.63;;;1.50;99.90;;;;;;4979556;28;20042;-86
2021/12/05 12:12:36;;;;;;;6.80;4.45;;;1.70;99.90;;;;;;4996884;28;20034;-87
2021/12/05 12:15:04;;;;;;;12.80;7.95;;;1.90;99.90;;;;;;4997312;28;20026;-86
2021/12/05 12:17:29;;;;;;;14.88;5.88;;;2.00;99.90;;;;;;4980111;28;20030;-86
2021/12/05 12:19:55;;;;;;;13.48;8.68;;;2.10;99.90;;;;;;4979344;28;20121;-86
2021/12/05 12:22:26;;;;;;;10.80;7.40;;;2.10;99.90;;;;;;4979830;28;20553;-86
2021/12/05 12:25:04;;;;;;;14.15;8.35;;;2.10;99.90;;;;;;4980085;28;20382;-87
2021/12/05 12:27:30;;;;;;;12.82;6.65;;;2.10;99.90;;;;;;4979877;28;20049;-87
2021/12/05 12:30:00;;;;;;;13.85;5.60;;;2.20;99.90;;;;;;4980122;28;20045;-86
2021/12/05 12:32:33;;;;;;;10.30;4.82;;;2.40;99.90;;;;;;4979766;28;20038;-87
2021/12/05 12:35:10;;;;;;;7.50;5.15;;;2.30;99.90;;;;;;4963822;28;20026;-87
2021/12/05 12:38:17;;;;;;;8.05;5.70;;;2.30;99.90;;;;;;4963568;28;20030;-86
2021/12/05 12:40:42;;;;;;;11.00;5.20;;;2.30;99.90;;;;;;4937155;29;20032;-87
2021/12/05 12:43:29;;;;;;;12.13;7.15;;;2.40;99.90;;;;;;4969657;28;20118;-86
2021/12/05 12:45:55;;;;;;;8.15;4.55;;;2.60;99.90;;;;;;4979018;28;20034;-86
2021/12/05 12:48:28;;;;;;;10.30;5.22;;;2.80;99.90;;;;;;4979287;28;20026;-86
2021/12/05 12:50:54;;;;;;;6.53;3.90;;;2.80;99.90;;;;;;4962944;28;20034;-86
2021/12/05 12:53:20;;;;;;;14.02;9.40;;;3.00;99.90;;;;;;4962827;28;20036;-86
2021/12/05 12:55:52;;;;;;;9.57;5.82;;;2.90;99.90;;;;;;4962950;28;20069;-86
2021/12/05 12:58:44;;;;;;;;;;;3.00;99.90;;;;;;4963334;28;20042;-86
2021/12/05 13:12:51;;;;;;;3.85;3.22;;;3.10;99.90;;;;;;4978533;28;20130;-86
2021/12/05 13:15:20;;;;;;;6.70;4.30;;;3.00;99.90;;;;;;4978300;28;20077;-86
2021/12/05 13:17:57;;;;;;;9.80;5.20;;;2.90;99.90;;;;;;4978190;28;20073;-86
2021/12/05 13:20:50;;;;;;;5.07;3.15;;;2.80;99.90;;;;;;4978441;28;20089;-85
2021/12/05 13:23:28;;;;;;;5.65;3.72;;;2.60;99.90;;;;;;4978239;28;20044;-86
2021/12/05 13:26:33;;;;;;;8.02;4.78;;;2.70;99.90;;;;;;4962000;28;20037;-85
2021/12/05 13:29:18;;;;;;;9.02;4.63;;;2.80;99.90;;;;;;4974607;28;20034;-85
2021/12/05 13:31:44;;;;;;;9.73;5.25;;;3.00;99.90;;;;;;4977833;28;20038;-85
2021/12/05 13:34:26;;;;;;;11.20;6.82;;;3.00;99.90;;;;;;4962067;28;20125;-86
2021/12/05 13:37:05;;;;;;;17.60;8.73;;;2.90;99.90;;;;;;4995273;28;20506;-86
2021/12/05 13:39:48;;;;;;;9.68;5.43;;;2.80;99.90;;;;;;4995586;28;20109;-85
2021/12/05 13:42:25;;;;;;;9.10;4.75;;;2.70;99.90;;;;;;4978139;28;20117;-86
2021/12/05 13:45:06;;;;;;;7.60;5.53;;;2.80;99.90;;;;;;4977664;28;20081;-86
2021/12/05 13:47:52;;;;;;;8.50;5.55;;;2.80;99.90;;;;;;4961515;28;20485;-86
2021/12/05 13:50:27;;;;;;;7.57;4.40;;;2.70;99.90;;;;;;4977972;28;20034;-86
2021/12/05 13:52:56;;;;;;;7.85;4.55;;;2.80;99.90;;;;;;4994906;28;20509;-86
2021/12/05 13:55:44;;;;;;;8.13;5.90;;;2.70;99.90;;;;;;4994878;28;20027;-86
2021/12/05 13:58:24;;;;;;;14.93;8.57;;;2.70;99.90;;;;;;4995004;28;20029;-87
2021/12/05 14:00:56;;;;;;;16.70;9.75;;;2.60;99.90;;;;;;4977594;28;20030;-86
2021/12/05 14:03:57;;;;;;;9.15;6.90;;;2.60;99.90;;;;;;4977548;28;20034;-86
2021/12/05 14:06:40;;;;;;;14.30;7.38;;;2.60;99.90;;;;;;4994680;28;20461;-86
2021/12/05 14:09:11;;;;;;;10.57;6.80;;;2.50;99.90;;;;;;4961126;28;20470;-86
2021/12/05 14:12:04;;;;;;;12.38;6.55;;;2.40;99.90;;;;;;4961344;28;20445;-86
2021/12/05 14:14:35;;;;;;;15.93;8.18;;;2.40;99.90;;;;;;4968921;28;20397;-86
2021/12/05 14:17:06;;;;;;;41.08;18.95;;;2.50;99.90;;;;;;4977276;28;20026;-86
2021/12/05 14:19:34;;;;;;;20.40;9.38;;;2.50;99.90;;;;;;4960659;28;20038;-86
2021/12/05 14:22:02;;;;;;;18.77;10.65;;;2.30;99.90;;;;;;4960776;28;20026;-86
2021/12/05 14:24:32;;;;;;;15.30;9.05;;;2.20;99.90;;;;;;4960667;28;20497;-85
2021/12/05 14:27:06;;;;;;;10.40;6.65;;;2.10;99.90;;;;;;4976725;28;20129;-86
2021/12/05 14:29:33;;;;;;;11.48;6.25;;;2.00;99.90;;;;;;4960285;28;20062;-86
2021/12/05 14:32:07;;;;;;;13.25;5.70;;;2.00;99.90;;;;;;4976684;28;20477;-86
2021/12/05 14:34:33;;;;;;;9.18;4.70;;;2.00;99.90;;;;;;4960832;28;20362;-86
2021/12/05 14:37:10;;;;;;;6.57;4.88;;;2.00;99.90;;;;;;4976927;28;20450;-86
2021/12/05 14:39:46;;;;;;;11.43;4.95;;;2.00;99.90;;;;;;4977179;28;20031;-85
2021/12/05 14:42:16;;;;;;;9.80;5.47;;;1.90;99.90;;;;;;4977143;28;20035;-86
2021/12/05 14:44:47;;;;;;;8.57;5.83;;;1.90;99.90;;;;;;4960402;28;20073;-85
2021/12/05 14:47:16;;;;;;;14.63;9.10;;;1.80;99.90;;;;;;4976845;28;20289;-86
2021/12/05 14:49:46;;;;;;;28.52;14.48;;;1.70;99.90;;;;;;4976800;28;20038;-86
2021/12/05 14:52:19;;;;;;;26.20;13.05;;;1.60;99.90;;;;;;4976592;28;20027;-86
2021/12/05 14:54:46;;;;;;;20.25;10.18;;;1.70;99.90;;;;;;4976998;28;20034;-86
2021/12/05 14:57:18;;;;;;;31.92;15.20;;;1.70;99.90;;;;;;4976985;28;20038;-86
2021/12/05 14:59:46;;;;;;;16.50;9.70;;;1.70;99.90;;;;;;4994404;28;20114;-86
2021/12/05 15:02:13;;;;;;;16.52;8.40;;;1.70;99.90;;;;;;4961042;28;20034;-86
2021/12/05 15:04:44;;;;;;;18.27;11.27;;;1.70;99.90;;;;;;4961051;28;20516;-85
2021/12/05 15:07:10;;;;;;;50.50;24.20;;;1.60;99.90;;;;;;4977014;28;20040;-86
2021/12/05 15:09:39;;;;;;;54.33;24.42;;;1.60;99.90;;;;;;4960615;28;20478;-86
2021/12/05 15:12:07;;;;;;;67.93;31.88;;;1.60;99.90;;;;;;4976521;28;20042;-86
2021/12/05 15:14:36;;;;;;;62.65;30.25;;;1.50;99.90;;;;;;4961070;28;20022;-86
2021/12/05 15:17:07;;;;;;;46.28;22.65;;;1.60;99.90;;;;;;4994189;28;20477;-86
2021/12/05 15:19:34;;;;;;;49.38;25.83;;;1.60;99.90;;;;;;4960474;28;20031;-87
2021/12/05 15:22:03;;;;;;;53.92;28.13;;;1.60;99.90;;;;;;4976769;28;20070;-86
2021/12/05 15:24:29;;;;;;;66.90;32.05;;;1.50;99.90;;;;;;4976832;28;20034;-86
2021/12/05 15:26:57;;;;;;;82.95;34.33;;;1.40;99.90;;;;;;4976511;28;20034;-86
2021/12/05 15:29:25;;;;;;;64.45;30.33;;;1.20;99.90;;;;;;4976385;28;20085;-85
2021/12/05 15:31:50;;;;;;;60.72;30.25;;;1.10;99.90;;;;;;4976119;28;20513;-85
2021/12/05 15:34:21;;;;;;;32.53;18.23;;;0.90;99.90;;;;;;4959925;28;20030;-85
2021/12/05 15:36:48;;;;;;;33.60;19.73;;;1.00;99.90;;;;;;4976179;28;20030;-85
2021/12/05 15:39:19;;;;;;;15.05;9.02;;;1.10;99.90;;;;;;4976227;28;20093;-86
2021/12/05 15:41:47;;;;;;;14.32;9.15;;;1.20;99.90;;;;;;4963573;28;20060;-85
2021/12/05 15:44:27;;;;;;;13.43;9.40;;;1.20;99.90;;;;;;4963388;28;20073;-85
2021/12/05 15:47:13;;;;;;;12.60;8.70;;;1.20;99.90;;;;;;4963408;28;20116;-86
2021/12/05 15:49:47;;;;;;;25.50;13.45;;;1.20;99.90;;;;;;4963494;28;20092;-86
2021/12/05 15:52:13;;;;;;;18.65;9.57;;;1.30;99.90;;;;;;4963135;28;20129;-85
2021/12/05 15:54:43;;;;;;;17.77;9.75;;;1.30;99.90;;;;;;4979158;28;20539;-85
2021/12/05 15:57:19;;;;;;;15.82;9.10;;;1.30;99.90;;;;;;4963151;28;20053;-85
2021/12/05 15:59:46;;;;;;;37.50;16.35;;;1.30;99.90;;;;;;4978995;28;20037;-86
2021/12/05 16:02:17;;;;;;;43.13;22.17;;;1.30;99.90;;;;;;4978879;28;20394;-86
2021/12/05 16:04:43;;;;;;;50.77;26.23;;;1.30;99.90;;;;;;4978264;28;20129;-85
2021/12/05 16:07:10;;;;;;;52.83;26.55;;;1.40;99.90;;;;;;4960990;28;20540;-86
2021/12/05 16:09:39;;;;;;;35.00;19.08;;;1.40;99.90;;;;;;4962428;28;20034;-85
2021/12/05 16:12:13;;;;;;;32.35;15.95;;;1.40;99.90;;;;;;4978613;28;20088;-85
2021/12/05 16:14:43;;;;;;;27.80;15.90;;;1.40;99.90;;;;;;4978458;28;20037;-86
2021/12/05 16:17:16;;;;;;;26.88;14.95;;;1.40;99.90;;;;;;4962567;28;20031;-85
2021/12/05 16:20:07;;;;;;;28.50;15.65;;;1.40;99.90;;;;;;4962269;28;20122;-86
2021/12/05 16:23:00;;;;;;;20.70;10.55;;;1.40;99.90;;;;;;4978392;28;20556;-85
2021/12/05 16:25:26;;;;;;;19.95;12.13;;;1.30;99.90;;;;;;4978018;28;20038;-85
2021/12/05 16:27:56;;;;;;;18.42;10.98;;;1.10;99.90;;;;;;4962322;28;20093;-85
2021/12/05 16:30:27;;;;;;;24.17;13.85;;;1.10;99.90;;;;;;4995751;28;20034;-85
2021/12/05 16:32:54;;;;;;;40.22;20.52;;;1.10;99.90;;;;;;4978666;28;20042;-86
2021/12/05 16:35:39;;;;;;;18.73;11.15;;;1.10;99.90;;;;;;4978429;28;20030;-86
2021/12/05 16:38:35;;;;;;;15.77;9.38;;;1.10;99.90;;;;;;4978388;28;20386;-86
2021/12/05 16:41:26;;;;;;;17.23;10.25;;;1.00;99.90;;;;;;4997668;28;20382;-86
2021/12/05 16:44:09;;;;;;;12.88;9.25;;;1.00;99.90;;;;;;4995754;28;20089;-86
2021/12/05 16:46:48;;;;;;;18.17;10.80;;;1.10;99.90;;;;;;4963536;28;20053;-86
2021/12/05 16:49:18;;;;;;;14.13;7.53;;;1.00;99.90;;;;;;4962014;28;20041;-86
2021/12/05 16:51:49;;;;;;;15.70;8.45;;;1.00;99.90;;;;;;4994466;28;20038;-86
2021/12/05 16:54:33;;;;;;;18.20;8.95;;;0.90;99.90;;;;;;4961977;28;20030;-86
2021/12/05 16:57:24;;;;;;;17.63;9.60;;;0.90;99.90;;;;;;4978525;28;20031;-85
2021/12/05 16:59:55;;;;;;;21.35;11.50;;;0.90;99.90;;;;;;4995127;28;20034;-86
2021/12/05 17:02:30;;;;;;;21.38;11.85;;;0.80;99.90;;;;;;4978223;28;20034;-86
2021/12/05 17:05:01;;;;;;;21.70;11.43;;;0.80;99.90;;;;;;4977359;28;20126;-86
2021/12/05 17:08:16;;;;;;;23.90;12.20;;;0.70;99.90;;;;;;4962398;28;20454;-86
2021/12/05 17:10:46;;;;;;;27.95;12.18;;;0.60;99.90;;;;;;4995503;28;20324;-86
2021/12/05 17:13:26;;;;;;;37.50;15.88;;;0.60;99.90;;;;;;4964187;28;20422;-86
2021/12/05 17:16:08;;;;;;;50.35;20.52;;;0.70;99.90;;;;;;4978759;28;20393;-86
2021/12/05 17:18:44;;;;;;;59.10;23.15;;;0.70;99.90;;;;;;4978182;28;20127;-86
2021/12/05 17:21:24;;;;;;;71.35;26.35;;;0.80;99.90;;;;;;4978585;28;20030;-85
2021/12/05 17:23:59;;;;;;;58.63;23.60;;;0.70;99.90;;;;;;4978601;28;20041;-85
2021/12/05 17:26:34;;;;;;;34.30;16.88;;;0.50;99.90;;;;;;4962663;28;20042;-84
2021/12/05 17:29:28;;;;;;;29.35;12.70;;;0.30;99.90;;;;;;4978530;28;20112;-84
2021/12/05 17:32:08;;;;;;;19.25;11.18;;;0.10;99.90;;;;;;4995370;28;20493;-85
2021/12/05 17:34:47;;;;;;;30.38;15.63;;;0.00;99.90;;;;;;4978213;28;20040;-84
2021/12/05 17:37:25;;;;;;;27.13;12.48;;;-0.10;99.90;;;;;;4978094;28;20034;-85
2021/12/05 17:39:52;;;;;;;46.65;24.30;;;-0.20;99.90;;;;;;4961935;28;20437;-84
2021/12/05 17:42:26;;;;;;;101.05;41.75;;;-0.20;99.90;;;;;;4962108;28;20169;-85
2021/12/05 17:44:57;;;;;;;85.05;38.95;;;-0.10;99.90;;;;;;4961536;28;20042;-84
2021/12/05 17:47:25;;;;;;;123.18;58.05;;;-0.10;99.90;;;;;;4994996;28;20034;-85
2021/12/05 17:49:54;;;;;;;122.50;59.47;;;0.00;99.90;;;;;;4978233;28;20046;-84
2021/12/05 17:52:24;;;;;;;87.25;46.85;;;0.00;99.90;;;;;;4961518;28;20038;-85
2021/12/05 17:54:57;;;;;;;58.75;33.83;;;0.00;99.90;;;;;;4961689;28;20026;-85
2021/12/05 17:57:38;;;;;;;43.22;25.35;;;-0.10;99.90;;;;;;4961440;28;20080;-84
2021/12/05 18:00:15;;;;;;;53.97;29.05;;;-0.10;99.90;;;;;;4961441;28;20026;-84
2021/12/05 18:02:45;;;;;;;51.35;27.88;;;-0.30;99.90;;;;;;4977197;28;20030;-85
2021/12/05 18:05:19;;;;;;;48.28;26.02;;;-0.40;99.90;;;;;;4977065;28;20038;-85
2021/12/05 18:07:47;;;;;;;50.78;25.25;;;-0.60;99.90;;;;;;4961054;28;20034;-84
2021/12/05 18:10:15;;;;;;;40.28;24.42;;;-0.60;99.90;;;;;;4977234;28;20134;-84
2021/12/05 18:12:43;;;;;;;44.08;23.95;;;-0.70;99.90;;;;;;4960359;28;20062;-83
2021/12/05 18:15:16;;;;;;;42.75;22.95;;;-0.70;99.90;;;;;;4978136;28;20031;-83
2021/12/05 18:17:42;;;;;;;36.42;20.55;;;-0.80;99.90;;;;;;4994398;28;20482;-84
2021/12/05 18:20:12;;;;;;;29.13;18.42;;;-0.80;99.90;;;;;;4977051;28;20022;-83
2021/12/05 18:22:38;;;;;;;29.40;19.20;;;-0.80;99.90;;;;;;4976971;28;20081;-83
2021/12/05 18:25:05;;;;;;;27.80;16.27;;;-0.70;99.90;;;;;;4960853;28;20441;-84
2021/12/05 18:27:30;;;;;;;29.13;15.13;;;-0.60;99.90;;;;;;4976823;28;20130;-83
2021/12/05 18:29:57;;;;;;;24.98;15.57;;;-0.50;99.90;;;;;;4976863;28;20054;-84
2021/12/05 18:32:22;;;;;;;46.47;22.42;;;-0.50;99.90;;;;;;4976817;28;20502;-83
2021/12/05 18:34:48;;;;;;;40.10;22.70;;;-0.50;99.90;;;;;;4976617;28;20035;-84
2021/12/05 18:37:14;;;;;;;43.92;21.40;;;-0.60;99.90;;;;;;4976562;28;20027;-84